CYKZ/YKZ METAR and TAF weather

Enter ICAO airport designator
Station Type Date Time Source
CYKZ METAR 2018/01/24 07:00 UTC NOAA

CYKZ 240700Z 32015G25KT 8SM -SN OVC026 M07/M11 A2988 RMK SC8 SLP130


Station Type Date Time Source
CYKZ Decoded METAR 2018/01/24 07:00 UTC NOAA

Toronto Buttonville, Canada (CYKZ) 43-52N 079-22W
Jan 24, 2018 - 02:00 AM EST / 2018.01.24 0700 UTC
Wind: from the NW (320 degrees) at 17 MPH (15 KT) gusting to 29 MPH (25 KT):0
Visibility: 8 mile(s):0
Sky conditions: overcast
Weather: light snow
Temperature: 19 F (-7 C)
Windchill: 3 F (-16 C):1
Dew Point: 12 F (-11 C)
Relative Humidity: 73%
Pressure (altimeter): 29.88 in. Hg (1011 hPa)
ob: CYKZ 240700Z 32015G25KT 8SM -SN OVC026 M07/M11 A2988 RMK SC8 SLP130
cycle: 7

Station Type Date Time Source
CYKZ TAF 2018/01/24 06:42 UTC NOAA

TAF CYKZ 240538Z 2406/2418 31012G22KT P6SM BKN030
TEMPO 2406/2409 P6SM -SN OVC020
BECMG 2407/2409 31012KT
FM241400 35012KT P6SM SCT030
RMK NXT FCST BY 241200Z


Example: see airport list